Smit Orleans — CFN5087 — position and weather

sailwx.info

Track history (hours):
 
Tides and Currents Weather Stations Pressure Air Temp Water Temp Dewpoint Dewpoint Depression Visibility Wind Speed Wind Dir Waves Ship Positions

Smit Orleans

Last reported at 2014-Nov-01 11:33 UTC. Time now 2014-Nov-01 11:40 UTC.
Position N 49°10' W 123°20'.

Length 29 m; draft 5.1 m.

Type: . MMSI: 316012721.

Date/timePositionNaut miles runAvg speedWind from/ knotsBaromVisibWave heightAir tempDewpointWater temp
2014-Nov-01 11:33N 49°10' W 123°20'1010.2
2014-Nov-01 10:33N 48°60' W 123°14'1111.3
2014-Nov-01 09:33N 48°52' W 123°01'9 9.1
2014-Nov-01 08:32N 48°44' W 123°07'8 8.5
2014-Nov-01 07:33N 48°36' W 123°13'1010.5
2014-Nov-01 06:33N 48°26' W 123°10'1111.1
2014-Nov-01 05:33N 48°20' W 123°23'4 3.6
2014-Nov-01 04:33N 48°23' W 123°22'7 7.3
2014-Nov-01 03:33N 48°26' W 123°12'1110.6
2014-Nov-01 02:33N 48°37' W 123°14'9 9.1
2014-Nov-01 01:33N 48°45' W 123°08'7 6.5
2014-Nov-01 00:33N 48°51' W 123°04'9 8.8
2014-Oct-31 23:32N 48°57' W 123°14'1111.1
2014-Oct-31 22:33N 49°07' W 123°20'1312.7
2014-Oct-31 21:33N 49°18' W 123°12'6 6.4
2014-Oct-31 20:33N 49°18' W 123°03'3 3.2
2014-Oct-31 19:33N 49°18' W 122°58'1 0.8
2014-Oct-31 18:33N 49°18' W 122°56'2 2.4
2014-Oct-31 17:33N 49°18' W 123°00'2 2.3
2014-Oct-31 16:33N 49°17' W 123°04'0 0.0
2014-Oct-31 15:33N 49°17' W 123°04'0 0.0
2014-Oct-31 14:33N 49°17' W 123°04'0 0.0
2014-Oct-31 13:33N 49°17' W 123°04'0 0.0
2014-Oct-31 12:33N 49°17' W 123°04'0 0.0
2014-Oct-31 11:33N 49°17' W 123°04'0 0.0
2014-Oct-31 10:33N 49°17' W 123°04'0 0.0
2014-Oct-31 09:33N 49°17' W 123°04'0 0.0
2014-Oct-31 08:33N 49°17' W 123°04'0 0.0
2014-Oct-31 07:33N 49°17' W 123°04'0 0.0
2014-Oct-31 06:33N 49°17' W 123°04'0 0.0
2014-Oct-31 05:33N 49°17' W 123°04'0 0.0
2014-Oct-31 04:33N 49°17' W 123°04'0 0.0
2014-Oct-31 03:33N 49°17' W 123°04'0 0.0
2014-Oct-31 02:33N 49°17' W 123°04'0 0.0
2014-Oct-31 01:33N 49°17' W 123°04'0 0.0
2014-Oct-31 00:33N 49°17' W 123°04'0 0.0
2014-Oct-30 23:33N 49°17' W 123°04'0 0.0
2014-Oct-30 22:33N 49°17' W 123°04'4 4.3
2014-Oct-30 21:33N 49°17' W 122°57'1 1.4
2014-Oct-30 20:33N 49°18' W 122°59'3 2.9
2014-Oct-30 19:33N 49°17' W 123°04'0 0.5
2014-Oct-30 18:33N 49°18' W 123°04'2 1.8
2014-Oct-30 17:33N 49°18' W 123°07'0 0.0
2014-Oct-30 16:33N 49°18' W 123°07'2 2.0
2014-Oct-30 15:33N 49°18' W 123°04'1 0.8
2014-Oct-30 14:33N 49°17' W 123°04'0 0.0
2014-Oct-30 13:33N 49°17' W 123°04'0 0.0
2014-Oct-30 12:33N 49°17' W 123°04'0 0.0
2014-Oct-30 11:33N 49°17' W 123°04'0 0.0
2014-Oct-30 10:33N 49°17' W 123°04'0 0.0
2014-Oct-30 09:33N 49°17' W 123°04'0 0.0
2014-Oct-30 08:33N 49°17' W 123°04'0 0.0
2014-Oct-30 07:33N 49°17' W 123°04'0 0.0
2014-Oct-30 06:33N 49°17' W 123°04'0 0.0
2014-Oct-30 05:33N 49°17' W 123°04'0 0.0
2014-Oct-30 04:33N 49°17' W 123°04'0 0.0
2014-Oct-30 03:33N 49°17' W 123°04'0 0.0
2014-Oct-30 02:33N 49°17' W 123°04'0 0.0
2014-Oct-30 01:33N 49°17' W 123°04'0 0.0
2014-Oct-30 00:33N 49°17' W 123°04'1 0.8
2014-Oct-29 23:33N 49°18' W 123°04'1 1.4
2014-Oct-29 22:33N 49°18' W 123°06'1 1.5
2014-Oct-29 21:33N 49°17' W 123°04'0 0.0
2014-Oct-29 20:33N 49°17' W 123°04'0 0.0
2014-Oct-29 19:33N 49°17' W 123°04'0 0.0
2014-Oct-29 18:33N 49°17' W 123°04'0 0.0
2014-Oct-29 17:33N 49°17' W 123°04'0 0.0
2014-Oct-29 16:33N 49°17' W 123°04'0 0.0
2014-Oct-29 15:33N 49°17' W 123°04'0 0.0
2014-Oct-29 14:33N 49°17' W 123°04'0 0.0
2014-Oct-29 13:33N 49°17' W 123°04'0 0.0
2014-Oct-29 12:33N 49°17' W 123°04'0 0.0
2014-Oct-29 11:33N 49°17' W 123°04'0 0.0
2014-Oct-29 10:33N 49°17' W 123°04'0 0.0
2014-Oct-29 09:33N 49°17' W 123°04'0 0.0
2014-Oct-29 08:33N 49°17' W 123°04'0 0.0
2014-Oct-29 07:33N 49°17' W 123°04'0 0.0
2014-Oct-29 06:33N 49°17' W 123°04'0 0.0
2014-Oct-29 05:33N 49°17' W 123°04'0 0.0
2014-Oct-29 04:33N 49°17' W 123°04'0 0.0
2014-Oct-29 03:33N 49°17' W 123°04'0 0.0
2014-Oct-29 02:33N 49°17' W 123°04'0 0.0
2014-Oct-29 01:33N 49°17' W 123°04'0 0.0
2014-Oct-29 00:33N 49°17' W 123°04'0 0.0
2014-Oct-28 23:33N 49°17' W 123°04'0 0.0
2014-Oct-28 22:33N 49°17' W 123°04'0 0.0
2014-Oct-28 21:33N 49°17' W 123°04'0 0.0
2014-Oct-28 20:33N 49°17' W 123°04'0 0.0
2014-Oct-28 19:33N 49°17' W 123°04'0 0.0
2014-Oct-28 18:33N 49°17' W 123°04'0 0.0
2014-Oct-28 17:33N 49°17' W 123°04'0 0.0
2014-Oct-28 16:33N 49°17' W 123°04'0 0.0
2014-Oct-28 15:33N 49°17' W 123°04'0 0.0
2014-Oct-28 14:33N 49°17' W 123°04'0 0.0
2014-Oct-28 13:33N 49°17' W 123°04'0 0.0
2014-Oct-28 12:33N 49°17' W 123°04'2 1.8
2014-Oct-28 11:33N 49°18' W 123°01'3 2.7
2014-Oct-28 10:34N 49°18' W 123°05'2 1.7
2014-Oct-28 09:33N 49°18' W 123°03'1 0.7
2014-Oct-28 08:33N 49°17' W 123°04'0 0.0
2014-Oct-28 07:33N 49°17' W 123°04'0 0.0
2014-Oct-28 06:33N 49°17' W 123°04'1 0.9
2014-Oct-28 05:34N 49°18' W 123°04'1 0.9
2014-Oct-28 04:33N 49°17' W 123°04'2 1.5
2014-Oct-28 03:34N 49°17' W 123°06'0 0.2
2014-Oct-28 02:33N 49°18' W 123°06'1 1.1
2014-Oct-28 01:33N 49°19' W 123°07'3 2.5
2014-Oct-28 00:33N 49°17' W 123°04'0 0.0
2014-Oct-27 23:33N 49°17' W 123°04'0 0.0
2014-Oct-27 22:33N 49°17' W 123°04'0 0.0
2014-Oct-27 21:33N 49°17' W 123°04'0 0.0
2014-Oct-27 20:33N 49°17' W 123°04'0 0.0
2014-Oct-27 19:33N 49°17' W 123°04'1 0.9
2014-Oct-27 18:33N 49°18' W 123°03'1 1.2
2014-Oct-27 17:33N 49°18' W 123°01'2 1.6
2014-Oct-27 16:34N 49°17' W 123°04'1 0.8
2014-Oct-27 15:33N 49°18' W 123°04'0 0.4
2014-Oct-27 14:34N 49°18' W 123°03'1 1.0
2014-Oct-27 13:33N 49°17' W 123°05'1 0.7
2014-Oct-27 12:33N 49°17' W 123°04'0 0.0
2014-Oct-27 11:34N 49°17' W 123°04'1 1.0
2014-Oct-27 10:33N 49°18' W 123°02'0 0.0
2014-Oct-27 09:33N 49°18' W 123°02'1 1.1
2014-Oct-27 08:33N 49°17' W 123°04'0 0.0
2014-Oct-27 07:33N 49°17' W 123°04'0 0.0
2014-Oct-27 06:33N 49°17' W 123°04'0 0.0
2014-Oct-27 05:33N 49°17' W 123°04'1 0.5
2014-Oct-27 04:33N 49°17' W 123°04'2 2.3
2014-Oct-27 03:33N 49°19' W 123°07'3 2.8
2014-Oct-27 02:34N 49°17' W 123°04'0 0.0
2014-Oct-27 01:33N 49°17' W 123°04'1 1.4
2014-Oct-27 00:34N 49°17' W 123°06'1 1.2
2014-Oct-26 23:33N 49°18' W 123°07'2 2.2
2014-Oct-26 22:33N 49°17' W 123°04'0 0.0
2014-Oct-26 21:33N 49°17' W 123°04'0 0.0
2014-Oct-26 20:33N 49°17' W 123°04'0 0.0
2014-Oct-26 19:34N 49°17' W 123°04'0 0.0
2014-Oct-26 18:33N 49°17' W 123°04'0 0.0
2014-Oct-26 17:34N 49°17' W 123°04'0 0.0
2014-Oct-26 16:33N 49°17' W 123°04'0 0.0
2014-Oct-26 15:33N 49°17' W 123°04'0 0.0
2014-Oct-26 14:34N 49°17' W 123°04'0 0.0
2014-Oct-26 13:34N 49°17' W 123°04'0 0.0
2014-Oct-26 12:34N 49°17' W 123°04'0 0.0
2014-Oct-26 11:34N 49°17' W 123°04'0 0.0
2014-Oct-26 10:34N 49°17' W 123°04'0 0.0
2014-Oct-26 09:34N 49°17' W 123°04'7 6.7
2014-Oct-26 08:34N 49°19' W 123°14'9 9.1
2014-Oct-26 07:33N 49°28' W 123°17'1010.4
2014-Oct-26 06:33N 49°39' W 123°14'3 2.4
2014-Oct-26 05:31N 49°40' W 123°11'2 1.9
2014-Oct-26 04:33N 49°39' W 123°14'6 6.5
2014-Oct-26 03:33N 49°33' W 123°16'8 8.5
2014-Oct-26 02:33N 49°25' W 123°18'7 6.8
2014-Oct-26 01:33N 49°19' W 123°11'5 5.3
2014-Oct-26 00:34N 49°17' W 123°04'0 0.0
2014-Oct-25 23:34N 49°17' W 123°04'0 0.0
2014-Oct-25 22:33N 49°17' W 123°04'0 0.0
2014-Oct-25 21:33N 49°17' W 123°04'0 0.0
2014-Oct-25 20:34N 49°17' W 123°04'0 0.0
2014-Oct-25 19:33N 49°17' W 123°04'0 0.0
2014-Oct-25 18:34N 49°17' W 123°04'0 0.0
2014-Oct-25 17:34N 49°17' W 123°04'0 0.0
2014-Oct-25 16:33N 49°17' W 123°04'0 0.0
2014-Oct-25 15:34N 49°17' W 123°04'0 0.0
2014-Oct-25 14:33N 49°17' W 123°04'0 0.0
2014-Oct-25 13:33N 49°17' W 123°04'0 0.0
2014-Oct-25 12:33N 49°17' W 123°04'0 0.0
2014-Oct-25 11:33N 49°17' W 123°04'0 0.0
2014-Oct-25 10:34N 49°17' W 123°04'1 1.1
2014-Oct-25 09:33N 49°18' W 123°02'1 0.6
2014-Oct-25 08:34N 49°18' W 123°03'2 1.7
2014-Oct-25 07:34N 49°18' W 123°05'1 0.9
2014-Oct-25 06:34N 49°17' W 123°04'2 1.6
2014-Oct-25 05:34N 49°18' W 123°07'2 2.0
2014-Oct-25 04:34N 49°17' W 123°04'0 0.0
2014-Oct-25 03:34N 49°17' W 123°04'0 0.0
2014-Oct-25 02:34N 49°17' W 123°04'0 0.0
2014-Oct-25 01:33N 49°17' W 123°04'2 2.2
2014-Oct-25 00:34N 49°18' W 123°00'2 2.2
2014-Oct-24 23:34N 49°17' W 123°04'0 0.0
2014-Oct-24 22:33N 49°17' W 123°04'0 0.0
2014-Oct-24 21:34N 49°17' W 123°04'0 0.0
2014-Oct-24 20:34N 49°17' W 123°04'0 0.0
2014-Oct-24 19:34N 49°17' W 123°04'0 0.0
2014-Oct-24 18:34N 49°17' W 123°04'0 0.0
2014-Oct-24 17:34N 49°17' W 123°04'0 0.0
2014-Oct-24 16:33N 49°17' W 123°04'0 0.0
2014-Oct-24 15:34N 49°17' W 123°04'3 2.7
2014-Oct-24 14:33N 49°19' W 123°07'3 2.7
2014-Oct-24 13:33N 49°17' W 123°04'0 0.0
2014-Oct-24 12:33N 49°17' W 123°04'0 0.0
2014-Oct-24 11:33N 49°17' W 123°04'0 0.0
2014-Oct-24 10:33N 49°17' W 123°04'0 0.0
2014-Oct-24 09:33N 49°17' W 123°04'0 0.0
2014-Oct-24 08:33N 49°17' W 123°04'1 0.8
2014-Oct-24 07:33N 49°18' W 123°04'1 1.2
2014-Oct-24 06:33N 49°18' W 123°06'2 1.6
2014-Oct-24 05:33N 49°17' W 123°04'0 0.0
2014-Oct-24 04:33N 49°17' W 123°04'0 0.0
2014-Oct-24 03:33N 49°17' W 123°04'0 0.0
2014-Oct-24 02:33N 49°17' W 123°04'0 0.0
2014-Oct-24 01:33N 49°17' W 123°04'0 0.0
2014-Oct-24 00:33N 49°17' W 123°04'0 0.0
2014-Oct-23 23:33N 49°17' W 123°04'0 0.0
2014-Oct-23 22:33N 49°17' W 123°04'0 0.0
2014-Oct-23 21:33N 49°17' W 123°04'0 0.0
2014-Oct-23 20:33N 49°17' W 123°04'0 0.0
2014-Oct-23 19:33N 49°17' W 123°04'0 0.0
2014-Oct-23 18:33N 49°17' W 123°04'0 0.0
2014-Oct-23 17:33N 49°17' W 123°04'0 0.0
2014-Oct-23 16:33N 49°17' W 123°04'0 0.0
2014-Oct-23 15:33N 49°17' W 123°04'0 0.0
2014-Oct-23 14:33N 49°17' W 123°04'0 0.0
2014-Oct-23 13:33N 49°17' W 123°04'0 0.0
2014-Oct-23 12:33N 49°17' W 123°04'0 0.0
2014-Oct-23 11:33N 49°17' W 123°04'0 0.0
2014-Oct-23 10:33N 49°17' W 123°04'0 0.0
2014-Oct-23 09:33N 49°17' W 123°04'0 0.0
2014-Oct-23 08:33N 49°17' W 123°04'0 0.0
2014-Oct-23 07:33N 49°17' W 123°04'0 0.0
2014-Oct-23 06:33N 49°17' W 123°04'0 0.0
2014-Oct-23 05:33N 49°17' W 123°04'1 0.5
2014-Oct-23 04:33N 49°17' W 123°04'1 0.7
2014-Oct-23 03:33N 49°17' W 123°06'0 0.2
2014-Oct-23 02:33N 49°17' W 123°06'1 0.7
2014-Oct-23 01:33N 49°18' W 123°06'2 1.8
2014-Oct-23 00:33N 49°17' W 123°04'0 0.0
2014-Oct-22 23:34N 49°17' W 123°04'0 0.0
2014-Oct-22 22:33N 49°17' W 123°04'0 0.0
2014-Oct-22 21:33N 49°17' W 123°04'0 0.0
2014-Oct-22 20:33N 49°17' W 123°04'0 0.0
2014-Oct-22 19:33N 49°17' W 123°04'0 0.3
2014-Oct-22 18:33N 49°18' W 123°04'0 0.3
2014-Oct-22 17:33N 49°17' W 123°04'0 0.0
2014-Oct-22 16:33N 49°17' W 123°04'0 0.0
2014-Oct-22 15:33N 49°17' W 123°04'1 1.1
2014-Oct-22 14:33N 49°17' W 123°05'2 1.6
2014-Oct-22 13:33N 49°19' W 123°07'2 1.6
2014-Oct-22 12:33N 49°18' W 123°05'1 1.1
2014-Oct-22 11:33N 49°17' W 123°04'  
Track history (hours):
 
Tides and Currents Weather Stations Pressure Air Temp Water Temp Dewpoint Dewpoint Depression Visibility Wind Speed Wind Dir Waves Ship Positions

Smit Orleans

Last reported at 2014-Nov-01 11:33 UTC. Time now 2014-Nov-01 11:40 UTC.
Position N 49°10' W 123°20'.

Length 29 m; draft 5.1 m.

Type: . MMSI: 316012721.

Date/timePositionNaut miles runAvg speedWind from/ knotsBaromVisibWave heightAir tempDewpointWater temp
2014-Nov-01 11:33N 49°10' W 123°20'1010.2
2014-Nov-01 10:33N 48°60' W 123°14'1111.3
2014-Nov-01 09:33N 48°52' W 123°01'9 9.1
2014-Nov-01 08:32N 48°44' W 123°07'8 8.5
2014-Nov-01 07:33N 48°36' W 123°13'1010.5
2014-Nov-01 06:33N 48°26' W 123°10'1111.1
2014-Nov-01 05:33N 48°20' W 123°23'4 3.6
2014-Nov-01 04:33N 48°23' W 123°22'7 7.3
2014-Nov-01 03:33N 48°26' W 123°12'1110.6
2014-Nov-01 02:33N 48°37' W 123°14'9 9.1
2014-Nov-01 01:33N 48°45' W 123°08'7 6.5
2014-Nov-01 00:33N 48°51' W 123°04'9 8.8
2014-Oct-31 23:32N 48°57' W 123°14'1111.1
2014-Oct-31 22:33N 49°07' W 123°20'1312.7
2014-Oct-31 21:33N 49°18' W 123°12'6 6.4
2014-Oct-31 20:33N 49°18' W 123°03'3 3.2
2014-Oct-31 19:33N 49°18' W 122°58'1 0.8
2014-Oct-31 18:33N 49°18' W 122°56'2 2.4
2014-Oct-31 17:33N 49°18' W 123°00'2 2.3
2014-Oct-31 16:33N 49°17' W 123°04'0 0.0
2014-Oct-31 15:33N 49°17' W 123°04'0 0.0
2014-Oct-31 14:33N 49°17' W 123°04'0 0.0
2014-Oct-31 13:33N 49°17' W 123°04'0 0.0
2014-Oct-31 12:33N 49°17' W 123°04'0 0.0
2014-Oct-31 11:33N 49°17' W 123°04'0 0.0
2014-Oct-31 10:33N 49°17' W 123°04'0 0.0
2014-Oct-31 09:33N 49°17' W 123°04'0 0.0
2014-Oct-31 08:33N 49°17' W 123°04'0 0.0
2014-Oct-31 07:33N 49°17' W 123°04'0 0.0
2014-Oct-31 06:33N 49°17' W 123°04'0 0.0
2014-Oct-31 05:33N 49°17' W 123°04'0 0.0
2014-Oct-31 04:33N 49°17' W 123°04'0 0.0
2014-Oct-31 03:33N 49°17' W 123°04'0 0.0
2014-Oct-31 02:33N 49°17' W 123°04'0 0.0
2014-Oct-31 01:33N 49°17' W 123°04'0 0.0
2014-Oct-31 00:33N 49°17' W 123°04'0 0.0
2014-Oct-30 23:33N 49°17' W 123°04'0 0.0
2014-Oct-30 22:33N 49°17' W 123°04'4 4.3
2014-Oct-30 21:33N 49°17' W 122°57'1 1.4
2014-Oct-30 20:33N 49°18' W 122°59'3 2.9
2014-Oct-30 19:33N 49°17' W 123°04'0 0.5
2014-Oct-30 18:33N 49°18' W 123°04'2 1.8
2014-Oct-30 17:33N 49°18' W 123°07'0 0.0
2014-Oct-30 16:33N 49°18' W 123°07'2 2.0
2014-Oct-30 15:33N 49°18' W 123°04'1 0.8
2014-Oct-30 14:33N 49°17' W 123°04'0 0.0
2014-Oct-30 13:33N 49°17' W 123°04'0 0.0
2014-Oct-30 12:33N 49°17' W 123°04'0 0.0
2014-Oct-30 11:33N 49°17' W 123°04'0 0.0
2014-Oct-30 10:33N 49°17' W 123°04'0 0.0
2014-Oct-30 09:33N 49°17' W 123°04'0 0.0
2014-Oct-30 08:33N 49°17' W 123°04'0 0.0
2014-Oct-30 07:33N 49°17' W 123°04'0 0.0
2014-Oct-30 06:33N 49°17' W 123°04'0 0.0
2014-Oct-30 05:33N 49°17' W 123°04'0 0.0
2014-Oct-30 04:33N 49°17' W 123°04'0 0.0
2014-Oct-30 03:33N 49°17' W 123°04'0 0.0
2014-Oct-30 02:33N 49°17' W 123°04'0 0.0
2014-Oct-30 01:33N 49°17' W 123°04'0 0.0
2014-Oct-30 00:33N 49°17' W 123°04'1 0.8
2014-Oct-29 23:33N 49°18' W 123°04'1 1.4
2014-Oct-29 22:33N 49°18' W 123°06'1 1.5
2014-Oct-29 21:33N 49°17' W 123°04'0 0.0
2014-Oct-29 20:33N 49°17' W 123°04'0 0.0
2014-Oct-29 19:33N 49°17' W 123°04'0 0.0
2014-Oct-29 18:33N 49°17' W 123°04'0 0.0
2014-Oct-29 17:33N 49°17' W 123°04'0 0.0
2014-Oct-29 16:33N 49°17' W 123°04'0 0.0
2014-Oct-29 15:33N 49°17' W 123°04'0 0.0
2014-Oct-29 14:33N 49°17' W 123°04'0 0.0
2014-Oct-29 13:33N 49°17' W 123°04'0 0.0
2014-Oct-29 12:33N 49°17' W 123°04'0 0.0
2014-Oct-29 11:33N 49°17' W 123°04'0 0.0
2014-Oct-29 10:33N 49°17' W 123°04'0 0.0
2014-Oct-29 09:33N 49°17' W 123°04'0 0.0
2014-Oct-29 08:33N 49°17' W 123°04'0 0.0
2014-Oct-29 07:33N 49°17' W 123°04'0 0.0
2014-Oct-29 06:33N 49°17' W 123°04'0 0.0
2014-Oct-29 05:33N 49°17' W 123°04'0 0.0
2014-Oct-29 04:33N 49°17' W 123°04'0 0.0
2014-Oct-29 03:33N 49°17' W 123°04'0 0.0
2014-Oct-29 02:33N 49°17' W 123°04'0 0.0
2014-Oct-29 01:33N 49°17' W 123°04'0 0.0
2014-Oct-29 00:33N 49°17' W 123°04'0 0.0
2014-Oct-28 23:33N 49°17' W 123°04'0 0.0
2014-Oct-28 22:33N 49°17' W 123°04'0 0.0
2014-Oct-28 21:33N 49°17' W 123°04'0 0.0
2014-Oct-28 20:33N 49°17' W 123°04'0 0.0
2014-Oct-28 19:33N 49°17' W 123°04'0 0.0
2014-Oct-28 18:33N 49°17' W 123°04'0 0.0
2014-Oct-28 17:33N 49°17' W 123°04'0 0.0
2014-Oct-28 16:33N 49°17' W 123°04'0 0.0
2014-Oct-28 15:33N 49°17' W 123°04'0 0.0
2014-Oct-28 14:33N 49°17' W 123°04'0 0.0
2014-Oct-28 13:33N 49°17' W 123°04'0 0.0
2014-Oct-28 12:33N 49°17' W 123°04'2 1.8
2014-Oct-28 11:33N 49°18' W 123°01'3 2.7
2014-Oct-28 10:34N 49°18' W 123°05'2 1.7
2014-Oct-28 09:33N 49°18' W 123°03'1 0.7
2014-Oct-28 08:33N 49°17' W 123°04'0 0.0
2014-Oct-28 07:33N 49°17' W 123°04'0 0.0
2014-Oct-28 06:33N 49°17' W 123°04'1 0.9
2014-Oct-28 05:34N 49°18' W 123°04'1 0.9
2014-Oct-28 04:33N 49°17' W 123°04'2 1.5
2014-Oct-28 03:34N 49°17' W 123°06'0 0.2
2014-Oct-28 02:33N 49°18' W 123°06'1 1.1
2014-Oct-28 01:33N 49°19' W 123°07'3 2.5
2014-Oct-28 00:33N 49°17' W 123°04'0 0.0
2014-Oct-27 23:33N 49°17' W 123°04'0 0.0
2014-Oct-27 22:33N 49°17' W 123°04'0 0.0
2014-Oct-27 21:33N 49°17' W 123°04'0 0.0
2014-Oct-27 20:33N 49°17' W 123°04'0 0.0
2014-Oct-27 19:33N 49°17' W 123°04'1 0.9
2014-Oct-27 18:33N 49°18' W 123°03'1 1.2
2014-Oct-27 17:33N 49°18' W 123°01'2 1.6
2014-Oct-27 16:34N 49°17' W 123°04'1 0.8
2014-Oct-27 15:33N 49°18' W 123°04'0 0.4
2014-Oct-27 14:34N 49°18' W 123°03'1 1.0
2014-Oct-27 13:33N 49°17' W 123°05'1 0.7
2014-Oct-27 12:33N 49°17' W 123°04'0 0.0
2014-Oct-27 11:34N 49°17' W 123°04'1 1.0
2014-Oct-27 10:33N 49°18' W 123°02'0 0.0
2014-Oct-27 09:33N 49°18' W 123°02'1 1.1
2014-Oct-27 08:33N 49°17' W 123°04'0 0.0
2014-Oct-27 07:33N 49°17' W 123°04'0 0.0
2014-Oct-27 06:33N 49°17' W 123°04'0 0.0
2014-Oct-27 05:33N 49°17' W 123°04'1 0.5
2014-Oct-27 04:33N 49°17' W 123°04'2 2.3
2014-Oct-27 03:33N 49°19' W 123°07'3 2.8
2014-Oct-27 02:34N 49°17' W 123°04'0 0.0
2014-Oct-27 01:33N 49°17' W 123°04'1 1.4
2014-Oct-27 00:34N 49°17' W 123°06'1 1.2
2014-Oct-26 23:33N 49°18' W 123°07'2 2.2
2014-Oct-26 22:33N 49°17' W 123°04'0 0.0
2014-Oct-26 21:33N 49°17' W 123°04'0 0.0
2014-Oct-26 20:33N 49°17' W 123°04'0 0.0
2014-Oct-26 19:34N 49°17' W 123°04'0 0.0
2014-Oct-26 18:33N 49°17' W 123°04'0 0.0
2014-Oct-26 17:34N 49°17' W 123°04'0 0.0
2014-Oct-26 16:33N 49°17' W 123°04'0 0.0
2014-Oct-26 15:33N 49°17' W 123°04'0 0.0
2014-Oct-26 14:34N 49°17' W 123°04'0 0.0
2014-Oct-26 13:34N 49°17' W 123°04'0 0.0
2014-Oct-26 12:34N 49°17' W 123°04'0 0.0
2014-Oct-26 11:34N 49°17' W 123°04'0 0.0
2014-Oct-26 10:34N 49°17' W 123°04'0 0.0
2014-Oct-26 09:34N 49°17' W 123°04'7 6.7
2014-Oct-26 08:34N 49°19' W 123°14'9 9.1
2014-Oct-26 07:33N 49°28' W 123°17'1010.4
2014-Oct-26 06:33N 49°39' W 123°14'3 2.4
2014-Oct-26 05:31N 49°40' W 123°11'2 1.9
2014-Oct-26 04:33N 49°39' W 123°14'6 6.5
2014-Oct-26 03:33N 49°33' W 123°16'8 8.5
2014-Oct-26 02:33N 49°25' W 123°18'7 6.8
2014-Oct-26 01:33N 49°19' W 123°11'5 5.3
2014-Oct-26 00:34N 49°17' W 123°04'0 0.0
2014-Oct-25 23:34N 49°17' W 123°04'0 0.0
2014-Oct-25 22:33N 49°17' W 123°04'0 0.0
2014-Oct-25 21:33N 49°17' W 123°04'0 0.0
2014-Oct-25 20:34N 49°17' W 123°04'0 0.0
2014-Oct-25 19:33N 49°17' W 123°04'0 0.0
2014-Oct-25 18:34N 49°17' W 123°04'0 0.0
2014-Oct-25 17:34N 49°17' W 123°04'0 0.0
2014-Oct-25 16:33N 49°17' W 123°04'0 0.0
2014-Oct-25 15:34N 49°17' W 123°04'0 0.0
2014-Oct-25 14:33N 49°17' W 123°04'0 0.0
2014-Oct-25 13:33N 49°17' W 123°04'0 0.0
2014-Oct-25 12:33N 49°17' W 123°04'0 0.0
2014-Oct-25 11:33N 49°17' W 123°04'0 0.0
2014-Oct-25 10:34N 49°17' W 123°04'1 1.1
2014-Oct-25 09:33N 49°18' W 123°02'1 0.6
2014-Oct-25 08:34N 49°18' W 123°03'2 1.7
2014-Oct-25 07:34N 49°18' W 123°05'1 0.9
2014-Oct-25 06:34N 49°17' W 123°04'2 1.6
2014-Oct-25 05:34N 49°18' W 123°07'2 2.0
2014-Oct-25 04:34N 49°17' W 123°04'0 0.0
2014-Oct-25 03:34N 49°17' W 123°04'0 0.0
2014-Oct-25 02:34N 49°17' W 123°04'0 0.0
2014-Oct-25 01:33N 49°17' W 123°04'2 2.2
2014-Oct-25 00:34N 49°18' W 123°00'2 2.2
2014-Oct-24 23:34N 49°17' W 123°04'0 0.0
2014-Oct-24 22:33N 49°17' W 123°04'0 0.0
2014-Oct-24 21:34N 49°17' W 123°04'0 0.0
2014-Oct-24 20:34N 49°17' W 123°04'0 0.0
2014-Oct-24 19:34N 49°17' W 123°04'0 0.0
2014-Oct-24 18:34N 49°17' W 123°04'0 0.0
2014-Oct-24 17:34N 49°17' W 123°04'0 0.0
2014-Oct-24 16:33N 49°17' W 123°04'0 0.0
2014-Oct-24 15:34N 49°17' W 123°04'3 2.7
2014-Oct-24 14:33N 49°19' W 123°07'3 2.7
2014-Oct-24 13:33N 49°17' W 123°04'0 0.0
2014-Oct-24 12:33N 49°17' W 123°04'0 0.0
2014-Oct-24 11:33N 49°17' W 123°04'0 0.0
2014-Oct-24 10:33N 49°17' W 123°04'0 0.0
2014-Oct-24 09:33N 49°17' W 123°04'0 0.0
2014-Oct-24 08:33N 49°17' W 123°04'1 0.8
2014-Oct-24 07:33N 49°18' W 123°04'1 1.2
2014-Oct-24 06:33N 49°18' W 123°06'2 1.6
2014-Oct-24 05:33N 49°17' W 123°04'0 0.0
2014-Oct-24 04:33N 49°17' W 123°04'0 0.0
2014-Oct-24 03:33N 49°17' W 123°04'0 0.0
2014-Oct-24 02:33N 49°17' W 123°04'0 0.0
2014-Oct-24 01:33N 49°17' W 123°04'0 0.0
2014-Oct-24 00:33N 49°17' W 123°04'0 0.0
2014-Oct-23 23:33N 49°17' W 123°04'0 0.0
2014-Oct-23 22:33N 49°17' W 123°04'0 0.0
2014-Oct-23 21:33N 49°17' W 123°04'0 0.0
2014-Oct-23 20:33N 49°17' W 123°04'0 0.0
2014-Oct-23 19:33N 49°17' W 123°04'0 0.0
2014-Oct-23 18:33N 49°17' W 123°04'0 0.0
2014-Oct-23 17:33N 49°17' W 123°04'0 0.0
2014-Oct-23 16:33N 49°17' W 123°04'0 0.0
2014-Oct-23 15:33N 49°17' W 123°04'0 0.0
2014-Oct-23 14:33N 49°17' W 123°04'0 0.0
2014-Oct-23 13:33N 49°17' W 123°04'0 0.0
2014-Oct-23 12:33N 49°17' W 123°04'0 0.0
2014-Oct-23 11:33N 49°17' W 123°04'0 0.0
2014-Oct-23 10:33N 49°17' W 123°04'0 0.0
2014-Oct-23 09:33N 49°17' W 123°04'0 0.0
2014-Oct-23 08:33N 49°17' W 123°04'0 0.0
2014-Oct-23 07:33N 49°17' W 123°04'0 0.0
2014-Oct-23 06:33N 49°17' W 123°04'0 0.0
2014-Oct-23 05:33N 49°17' W 123°04'1 0.5
2014-Oct-23 04:33N 49°17' W 123°04'1 0.7
2014-Oct-23 03:33N 49°17' W 123°06'0 0.2
2014-Oct-23 02:33N 49°17' W 123°06'1 0.7
2014-Oct-23 01:33N 49°18' W 123°06'2 1.8
2014-Oct-23 00:33N 49°17' W 123°04'0 0.0
2014-Oct-22 23:34N 49°17' W 123°04'0 0.0
2014-Oct-22 22:33N 49°17' W 123°04'0 0.0
2014-Oct-22 21:33N 49°17' W 123°04'0 0.0
2014-Oct-22 20:33N 49°17' W 123°04'0 0.0
2014-Oct-22 19:33N 49°17' W 123°04'0 0.3
2014-Oct-22 18:33N 49°18' W 123°04'0 0.3
2014-Oct-22 17:33N 49°17' W 123°04'0 0.0
2014-Oct-22 16:33N 49°17' W 123°04'0 0.0
2014-Oct-22 15:33N 49°17' W 123°04'1 1.1
2014-Oct-22 14:33N 49°17' W 123°05'2 1.6
2014-Oct-22 13:33N 49°19' W 123°07'2 1.6
2014-Oct-22 12:33N 49°18' W 123°05'1 1.1
2014-Oct-22 11:33N 49°17' W 123°04'  

Dump ship's entire track history